Decoded Metar for RJGG (NAGOYA/CHUBU in JAPAN) (IATA:NGO) | Meteo·Mobile Aviation Weather
aviador You're here:

RJGG Decoded Metar

NAGOYA/CHUBU in JAPAN
Report Time2019-07-22 16:00:00
UTC Time2019-07-22 16:20:14
Flight Rules vfr VFR
Wind350° at 08 kt
W.Decomp.*RWY 36: 8.0 kt HW 0.4 kt LCW
Visibility9999 m
Phenomena:N/A
Clouds:Few 015 Hf
Broken 040 Hf
Expected CloudBase > 400 ft AGL from Temp-Dew spread
Ceiling4,000 ft
Temp23°C (ISA +8)
Dew Point22°C (94% RH)
QNH1006 hPa
Density Alt1,535 ft
Elevation16 ft
Report Wrong Elevation
Raw Report
RJGG 221600Z 35008KT 9999 FEW015 BKN040 23/22 Q1006 NOSIG=

Extra information for RJGG:More info

Metar Taf Metar & Taf Last 4 Metars F.Rules Stats Wind Profile Meteogram Temp Stats Airport Information Weather charts Add Link Nearby VenuesMetar ALERT Operation Metar Decoded Social comments